Time;durP1;ratioP1;P1;durP2;ratioP2;P2;SDS_P1;SDS_P2;PMS_P1;PMS_P2;Temp;Humidity;BMP_temperature;BMP_pressure;BME280_temperature;BME280_humidity;BME280_pressure;Samples;Min_cycle;Max_cycle;Signal;HPM_P1;HPM_P2
2022/07/17 00:03:09;;;;;;;;;;;15.90;97.30;;;;;;8355426;28;19935;-65
2022/07/17 00:07:10;;;;;;;;;;;15.90;97.30;;;;;;8390110;28;20359;-65
2022/07/17 00:11:12;;;;;;;;;;;15.80;97.20;;;;;;8371422;28;20384;-66
2022/07/17 00:15:14;;;;;;;;;;;15.70;97.20;;;;;;8372081;28;20261;-66
2022/07/17 00:19:15;;;;;;;;;;;15.70;97.30;;;;;;8351985;28;20334;-66
2022/07/17 00:23:17;;;;;;;;;;;15.60;97.30;;;;;;8364509;28;20287;-65
2022/07/17 00:27:19;;;;;;;;;;;15.50;97.30;;;;;;8365508;28;19924;-65
2022/07/17 00:31:20;;;;;;;;;;;15.50;97.30;;;;;;8366169;28;19924;-66
2022/07/17 00:35:22;;;;;;;;;;;15.50;97.30;;;;;;8371986;28;19927;-65
2022/07/17 00:39:24;;;;;;;;;;;15.40;97.30;;;;;;8372538;28;19920;-66
2022/07/17 00:43:26;;;;;;;;;;;15.40;97.30;;;;;;8385095;28;19920;-66
2022/07/17 00:47:28;;;;;;;;;;;15.30;97.30;;;;;;8371892;28;19920;-65
2022/07/17 00:51:29;;;;;;;;;;;15.30;97.30;;;;;;8370125;28;19928;-65
2022/07/17 00:55:31;;;;;;;;;;;15.20;97.30;;;;;;8384382;28;19921;-66
2022/07/17 00:59:48;;;;;;;;;;;15.10;97.50;;;;;;8368035;28;19928;-66
2022/07/17 01:03:50;;;;;;;;;;;15.00;97.20;;;;;;8373107;28;19931;-65
2022/07/17 01:07:53;;;;;;;;;;;15.00;97.10;;;;;;8386337;28;20410;-65
2022/07/17 01:22:07;;;;;;;;;;;14.80;97.30;;;;;;8378312;28;19939;-65
2022/07/17 01:26:09;;;;;;;;;;;14.80;97.30;;;;;;8384690;28;19928;-65
2022/07/17 01:30:11;;;;;;;;;;;14.80;97.30;;;;;;8376889;28;20291;-66
2022/07/17 01:34:12;;;;;;;;;;;14.70;97.20;;;;;;8380358;28;19933;-67
2022/07/17 01:38:14;;;;;;;;;;;14.60;97.10;;;;;;8368705;28;19935;-68
2022/07/17 01:42:16;;;;;;;;;;;14.60;97.10;;;;;;8382278;28;20421;-67
2022/07/17 01:46:18;;;;;;;;;;;14.50;97.10;;;;;;8375203;28;19925;-67
2022/07/17 01:50:19;;;;;;;;;;;14.50;97.00;;;;;;8379759;28;19935;-67
2022/07/17 01:54:21;;;;;;;;;;;14.40;96.90;;;;;;8380076;28;19940;-67
2022/07/17 01:58:23;;;;;;;;;;;14.30;97.00;;;;;;8371111;28;19932;-67
2022/07/17 02:02:25;;;;;;;;;;;14.30;97.10;;;;;;8373084;28;19928;-67
2022/07/17 02:06:26;;;;;;;;;;;14.20;97.00;;;;;;8384599;28;19924;-67
2022/07/17 02:10:28;;;;;;;;;;;14.10;97.00;;;;;;8382874;28;19935;-67
2022/07/17 02:14:30;;;;;;;;;;;14.10;97.10;;;;;;8387827;28;19933;-67
2022/07/17 02:18:31;;;;;;;;;;;14.10;97.10;;;;;;8380048;28;19933;-67
2022/07/17 02:22:33;;;;;;;;;;;14.00;97.00;;;;;;8371105;28;20712;-67
2022/07/17 02:26:36;;;;;;;;;;;14.00;97.10;;;;;;8375043;28;19968;-67
2022/07/17 02:30:37;;;;;;;;;;;13.90;97.10;;;;;;8373626;28;19934;-67
2022/07/17 02:34:40;;;;;;;;;;;13.90;97.10;;;;;;8381125;28;19933;-67
2022/07/17 02:38:42;;;;;;;;;;;13.80;97.10;;;;;;8376600;28;19951;-67
2022/07/17 02:42:44;;;;;;;;;;;13.80;97.10;;;;;;8379799;28;19935;-67
2022/07/17 02:46:45;;;;;;;;;;;13.80;97.10;;;;;;8371011;28;19940;-67
2022/07/17 02:50:47;;;;;;;;;;;13.80;97.10;;;;;;8364784;28;20264;-67
2022/07/17 02:54:49;;;;;;;;;;;13.70;97.20;;;;;;8389534;28;19924;-67
2022/07/17 02:58:51;;;;;;;;;;;13.70;97.20;;;;;;8383383;28;21821;-67
2022/07/17 03:02:53;;;;;;;;;;;13.60;97.10;;;;;;8374934;28;19925;-67
2022/07/17 03:06:54;;;;;;;;;;;13.60;97.10;;;;;;8371570;28;19924;-67
2022/07/17 03:10:56;;;;;;;;;;;13.50;97.10;;;;;;8392239;28;19925;-67
2022/07/17 03:14:57;;;;;;;;;;;13.40;97.00;;;;;;8377624;28;19933;-67
2022/07/17 03:18:59;;;;;;;;;;;13.40;97.10;;;;;;8379589;28;19966;-67
2022/07/17 03:23:01;;;;;;;;;;;13.40;97.10;;;;;;8392288;28;19924;-67
2022/07/17 03:27:02;;;;;;;;;;;13.30;97.20;;;;;;8377369;28;19951;-67
2022/07/17 03:31:04;;;;;;;;;;;13.30;97.30;;;;;;8377064;28;19924;-67
2022/07/17 03:35:07;;;;;;;;;;;13.30;97.30;;;;;;8375882;28;19925;-67
2022/07/17 03:39:08;;;;;;;;;;;13.30;97.30;;;;;;8369024;28;19925;-67
2022/07/17 03:43:10;;;;;;;;;;;13.20;97.30;;;;;;8376178;28;20295;-67
2022/07/17 03:47:12;;;;;;;;;;;13.20;97.30;;;;;;8373774;28;19925;-67
2022/07/17 03:51:13;;;;;;;;;;;13.20;97.30;;;;;;8365970;28;19924;-67
2022/07/17 03:55:15;;;;;;;;;;;13.20;97.30;;;;;;8400254;28;19935;-67
2022/07/17 03:59:17;;;;;;;;;;;13.10;97.20;;;;;;8376639;28;20384;-67
2022/07/17 04:03:18;;;;;;;;;;;13.10;97.30;;;;;;8368339;28;19935;-67
2022/07/17 04:07:30;;;;;;;;;;;13.10;97.40;;;;;;8370449;28;19932;-67
2022/07/17 04:11:32;;;;;;;;;;;13.10;97.50;;;;;;8370001;28;19925;-67
2022/07/17 04:15:49;;;;;;;;;;;13.10;97.60;;;;;;8369602;28;19925;-67
2022/07/17 04:19:50;;;;;;;;;;;13.20;97.80;;;;;;8367963;28;19980;-67
2022/07/17 04:23:52;;;;;;;;;;;13.20;97.90;;;;;;8381900;28;20419;-67
2022/07/17 04:27:54;;;;;;;;;;;13.20;97.90;;;;;;8361011;28;19925;-67
2022/07/17 04:31:55;;;;;;;;;;;13.20;98.00;;;;;;8358667;28;19936;-67
2022/07/17 04:35:57;;;;;;;;;;;13.20;98.00;;;;;;8360190;28;20027;-67
2022/07/17 04:39:58;;;;;;;;;;;13.20;98.00;;;;;;8380686;28;19959;-67
2022/07/17 04:44:00;;;;;;;;;;;13.20;98.00;;;;;;8390455;28;19929;-67
2022/07/17 04:48:02;;;;;;;;;;;13.20;98.00;;;;;;8366740;28;19940;-67
2022/07/17 04:52:04;;;;;;;;;;;13.20;98.20;;;;;;8366731;28;19936;-67
2022/07/17 04:56:05;;;;;;;;;;;13.20;98.20;;;;;;8362224;28;19948;-67
2022/07/17 05:00:08;;;;;;;;;;;13.30;98.40;;;;;;8373391;28;19925;-67
2022/07/17 05:04:09;;;;;;;;;;;13.40;98.50;;;;;;8372527;28;19932;-67
2022/07/17 05:08:11;;;;;;;;;;;13.40;98.60;;;;;;8380213;28;19932;-67
2022/07/17 05:12:13;;;;;;;;;;;13.50;98.90;;;;;;8367056;28;19935;-67
2022/07/17 05:16:14;;;;;;;;;;;13.60;99.10;;;;;;8380230;28;19924;-67
2022/07/17 05:20:16;;;;;;;;;;;13.70;99.20;;;;;;8379014;28;19957;-67
2022/07/17 05:24:18;;;;;;;;;;;13.80;99.40;;;;;;8377891;28;19925;-67
2022/07/17 05:28:20;;;;;;;;;;;13.90;99.60;;;;;;8373737;28;19924;-66
2022/07/17 05:32:21;;;;;;;;;;;14.00;99.80;;;;;;8375834;28;19931;-67
2022/07/17 05:36:23;;;;;;;;;;;14.20;99.90;;;;;;8384869;28;19967;-67
2022/07/17 05:40:25;;;;;;;;;;;14.30;99.90;;;;;;8383882;28;20411;-67
2022/07/17 05:44:27;;;;;;;;;;;14.50;99.90;;;;;;8377915;28;19974;-67
2022/07/17 05:48:30;;;;;;;;;;;14.70;99.90;;;;;;8380739;28;19924;-67
2022/07/17 05:52:31;;;;;;;;;;;14.90;99.90;;;;;;8356410;28;19931;-67
2022/07/17 05:56:33;;;;;;;;;;;15.00;99.90;;;;;;8369110;28;19935;-67
2022/07/17 06:00:35;;;;;;;;;;;15.20;99.90;;;;;;8350860;28;19928;-67
2022/07/17 06:04:36;;;;;;;;;;;15.30;99.90;;;;;;8358728;28;19932;-67
2022/07/17 06:08:38;;;;;;;;;;;15.40;99.90;;;;;;8357477;28;19979;-67
2022/07/17 06:12:39;;;;;;;;;;;15.50;99.90;;;;;;8354422;28;19928;-67
2022/07/17 06:16:41;;;;;;;;;;;15.60;99.90;;;;;;8355696;28;19931;-67
2022/07/17 06:20:43;;;;;;;;;;;15.70;99.90;;;;;;8354854;28;19970;-67
2022/07/17 06:24:45;;;;;;;;;;;15.80;99.90;;;;;;8373130;28;19925;-67
2022/07/17 06:28:47;;;;;;;;;;;15.90;99.90;;;;;;8357789;28;19925;-67
2022/07/17 06:32:49;;;;;;;;;;;16.00;99.90;;;;;;8351842;28;19925;-67
2022/07/17 06:36:50;;;;;;;;;;;16.10;99.90;;;;;;8354877;28;19929;-67
2022/07/17 06:40:52;;;;;;;;;;;16.30;99.90;;;;;;8353681;28;19931;-67
2022/07/17 06:44:53;;;;;;;;;;;16.40;99.90;;;;;;8356408;28;19939;-68
2022/07/17 06:48:55;;;;;;;;;;;16.50;99.90;;;;;;8357866;28;20353;-67
2022/07/17 06:52:58;;;;;;;;;;;16.70;99.90;;;;;;8353327;28;19928;-68
2022/07/17 06:56:59;;;;;;;;;;;16.80;99.90;;;;;;8359408;28;20629;-67
2022/07/17 07:01:01;;;;;;;;;;;16.90;99.90;;;;;;8354846;28;19929;-67
2022/07/17 07:05:04;;;;;;;;;;;17.00;99.90;;;;;;8356029;28;19929;-67
2022/07/17 07:09:05;;;;;;;;;;;17.20;99.90;;;;;;8353739;28;19931;-67
2022/07/17 07:13:07;;;;;;;;;;;17.30;99.90;;;;;;8370253;28;19925;-68
2022/07/17 07:17:09;;;;;;;;;;;17.30;99.90;;;;;;8357573;28;19931;-67
2022/07/17 07:21:11;;;;;;;;;;;17.30;99.90;;;;;;8353173;28;19932;-67
2022/07/17 07:25:12;;;;;;;;;;;17.40;99.90;;;;;;8352997;28;19925;-68
2022/07/17 07:29:14;;;;;;;;;;;17.40;99.90;;;;;;8347282;28;20281;-68
2022/07/17 07:33:17;;;;;;;;;;;17.50;99.90;;;;;;8349957;28;19973;-67
2022/07/17 07:37:19;;;;;;;;;;;17.70;99.90;;;;;;8347378;28;19948;-67
2022/07/17 07:41:21;;;;;;;;;;;17.80;99.90;;;;;;8346066;28;20495;-68
2022/07/17 07:45:23;;;;;;;;;;;17.90;99.90;;;;;;8346496;28;20275;-67
2022/07/17 07:49:25;;;;;;;;;;;18.00;99.90;;;;;;8344096;28;20372;-67
2022/07/17 07:53:27;;;;;;;;;;;18.10;99.90;;;;;;8346577;28;20276;-67
2022/07/17 07:57:29;;;;;;;;;;;18.20;99.90;;;;;;8353148;28;20370;-67
2022/07/17 08:01:30;;;;;;;;;;;18.30;99.90;;;;;;8346525;28;19924;-67
2022/07/17 08:05:33;;;;;;;;;;;18.30;99.90;;;;;;8352791;28;19936;-67
2022/07/17 08:09:34;;;;;;;;;;;18.40;99.90;;;;;;8343482;28;20384;-67
2022/07/17 08:13:36;;;;;;;;;;;18.50;99.90;;;;;;8351750;28;20283;-67
2022/07/17 08:17:38;;;;;;;;;;;18.60;99.90;;;;;;8352206;28;19924;-67
2022/07/17 08:21:39;;;;;;;;;;;18.70;99.90;;;;;;8354198;28;19933;-67
2022/07/17 08:25:41;;;;;;;;;;;18.70;99.90;;;;;;8353549;28;19948;-68
2022/07/17 08:29:43;;;;;;;;;;;18.60;99.90;;;;;;8355888;28;19925;-67
2022/07/17 08:34:01;;;;;;;;;;;18.60;99.90;;;;;;8348028;28;19929;-68
2022/07/17 08:38:03;;;;;;;;;;;18.60;99.90;;;;;;8350288;28;19936;-67
2022/07/17 08:42:07;;;;;;;;;;;18.60;99.90;;;;;;8353234;28;19944;-68
2022/07/17 08:46:12;;;;;;;;;;;18.60;99.90;;;;;;8354237;28;20288;-67
2022/07/17 08:50:14;;;;;;;;;;;18.70;99.90;;;;;;8351969;28;19932;-68
2022/07/17 08:54:16;;;;;;;;;;;18.80;99.90;;;;;;8350350;28;19928;-67
2022/07/17 08:58:18;;;;;;;;;;;18.90;99.90;;;;;;8366080;28;19932;-68
2022/07/17 09:02:20;;;;;;;;;;;19.10;99.90;;;;;;8344745;28;19937;-68
2022/07/17 09:06:21;;;;;;;;;;;19.20;99.90;;;;;;8340350;28;20466;-68
2022/07/17 09:10:30;;;;;;;;;;;19.40;99.90;;;;;;8342943;28;20373;-68
2022/07/17 09:14:36;;;;;;;;;;;19.40;99.90;;;;;;8367881;28;19931;-68
2022/07/17 09:18:44;;;;;;;;;;;19.50;99.90;;;;;;8353222;28;20308;-67
2022/07/17 09:23:00;;;;;;;;;;;19.50;99.90;;;;;;8345719;28;20441;-68
2022/07/17 09:27:01;;;;;;;;;;;19.60;99.90;;;;;;8349328;28;19929;-67
2022/07/17 09:31:03;;;;;;;;;;;19.80;99.90;;;;;;8356449;28;19940;-67
2022/07/17 09:35:06;;;;;;;;;;;19.90;99.90;;;;;;8345474;28;19936;-67
2022/07/17 09:39:07;;;;;;;;;;;20.00;99.90;;;;;;8353050;28;20352;-67
2022/07/17 09:43:09;;;;;;;;;;;20.00;99.90;;;;;;8350802;28;19929;-67
2022/07/17 09:47:11;;;;;;;;;;;20.00;99.90;;;;;;8354921;28;19932;-68
2022/07/17 09:51:15;;;;;;;;;;;19.90;99.90;;;;;;8343944;28;22333;-67
2022/07/17 09:55:16;;;;;;;;;;;19.90;99.90;;;;;;8348846;28;19924;-67
2022/07/17 09:59:38;;;;;;;;;;;20.00;99.90;;;;;;8366585;28;20379;-67
2022/07/17 10:03:40;;;;;;;;;;;20.10;99.90;;;;;;8351310;28;19947;-68
2022/07/17 10:07:42;;;;;;;;;;;20.10;99.90;;;;;;8354446;28;19932;-67
2022/07/17 10:11:44;;;;;;;;;;;20.30;99.90;;;;;;8353744;28;19932;-67
2022/07/17 10:15:50;;;;;;;;;;;20.40;99.90;;;;;;8351776;28;20150;-68
2022/07/17 10:19:55;;;;;;;;;;;20.50;99.90;;;;;;8355457;28;19982;-68
2022/07/17 10:23:57;;;;;;;;;;;20.70;99.90;;;;;;8356930;28;19974;-68
2022/07/17 10:27:58;;;;;;;;;;;20.70;99.90;;;;;;8349889;28;19970;-68
2022/07/17 10:32:02;;;;;;;;;;;20.80;99.90;;;;;;8347706;28;19924;-68
2022/07/17 10:36:04;;;;;;;;;;;20.90;99.90;;;;;;8348458;28;19936;-68
2022/07/17 10:40:14;;;;;;;;;;;20.90;99.90;;;;;;8352811;28;19929;-67
2022/07/17 10:44:23;;;;;;;;;;;21.00;99.90;;;;;;8354806;28;19939;-68
2022/07/17 10:48:25;;;;;;;;;;;21.00;99.90;;;;;;8356343;28;20009;-67
2022/07/17 10:52:26;;;;;;;;;;;21.00;99.90;;;;;;8355223;28;19944;-67
2022/07/17 10:56:28;;;;;;;;;;;21.20;99.90;;;;;;8354222;28;19932;-67
2022/07/17 11:00:30;;;;;;;;;;;21.20;99.90;;;;;;8351951;28;19979;-67
2022/07/17 11:04:36;;;;;;;;;;;21.40;99.90;;;;;;8357726;28;19928;-68
2022/07/17 11:08:45;;;;;;;;;;;21.40;99.90;;;;;;8350483;28;19924;-67
2022/07/17 11:12:47;;;;;;;;;;;21.50;99.90;;;;;;8357700;28;19932;-68
2022/07/17 11:16:57;;;;;;;1.95;1.00;;;21.60;99.90;;;;;;8355936;28;20086;-68
2022/07/17 11:21:01;;;;;;;2.17;0.90;;;21.70;99.90;;;;;;8350636;28;20052;-67
2022/07/17 11:25:05;;;;;;;2.17;0.85;;;21.80;99.90;;;;;;8352346;28;20053;-68
2022/07/17 11:29:06;;;;;;;3.05;1.00;;;21.80;99.90;;;;;;8356043;28;20044;-67
2022/07/17 11:33:15;;;;;;;2.78;1.20;;;21.90;99.90;;;;;;8353214;28;20056;-68
2022/07/17 11:37:17;;;;;;;3.25;1.02;;;22.00;99.90;;;;;;8356750;28;20056;-67
2022/07/17 11:41:20;;;;;;;2.55;1.00;;;22.10;99.90;;;;;;8351127;28;20052;-68
2022/07/17 11:45:21;;;;;;;1.90;1.00;;;22.20;99.90;;;;;;8356144;28;20049;-68
2022/07/17 11:49:27;;;;;;;;;;;22.30;99.90;;;;;;8358074;28;19936;-67
2022/07/17 11:53:33;;;;;;;;;;;22.40;99.90;;;;;;8352150;28;19935;-68
2022/07/17 11:57:46;;;;;;;2.40;0.90;;;22.50;99.90;;;;;;8355818;28;19928;-68
2022/07/17 12:01:48;;;;;;;4.03;1.05;;;22.60;99.90;;;;;;8353711;28;20049;-67
2022/07/17 12:05:49;;;;;;;;;;;22.70;99.90;;;;;;8357089;28;20037;-68
2022/07/17 12:09:53;;;;;;;2.83;1.10;;;22.70;99.90;;;;;;8354722;28;20276;-68
2022/07/17 12:14:02;;;;;;;;;;;22.70;99.90;;;;;;8357274;28;19935;-68
2022/07/17 12:18:05;;;;;;;;;;;22.70;99.90;;;;;;8352579;28;20066;-68
2022/07/17 12:22:07;;;;;;;;;;;22.70;99.90;;;;;;8341811;28;20728;-68
2022/07/17 12:26:12;;;;;;;;;;;22.70;99.90;;;;;;8351098;28;19951;-68
2022/07/17 12:30:14;;;;;;;;;;;22.70;99.90;;;;;;8345405;28;19921;-68
2022/07/17 12:34:16;;;;;;;;;;;22.70;99.90;;;;;;8353126;28;19928;-67
2022/07/17 12:38:18;;;;;;;;;;;22.80;99.90;;;;;;8354071;28;19966;-65
2022/07/17 12:42:19;;;;;;;;;;;22.80;99.90;;;;;;8364160;28;19929;-65
2022/07/17 12:46:21;;;;;;;;;;;22.90;99.90;;;;;;8354648;28;19925;-65
2022/07/17 12:50:22;;;;;;;;;;;23.00;99.90;;;;;;8349416;28;21062;-65
2022/07/17 12:54:24;;;;;;;;;;;23.10;99.90;;;;;;8356480;28;19970;-65
2022/07/17 12:58:26;;;;;;;2.65;1.00;;;23.20;99.90;;;;;;8350030;28;20386;-65
2022/07/17 13:02:28;;;;;;;3.22;1.50;;;23.20;99.90;;;;;;8353204;28;20053;-65
2022/07/17 13:06:49;;;;;;;2.55;1.10;;;23.20;99.90;;;;;;8355091;28;20080;-65
2022/07/17 13:10:51;;;;;;;3.00;1.23;;;23.30;99.90;;;;;;8336468;28;20051;-65
2022/07/17 13:14:53;;;;;;;2.65;1.13;;;23.30;99.90;;;;;;8351261;28;20415;-65
2022/07/17 13:18:54;;;;;;;3.45;1.73;;;23.40;99.90;;;;;;8355076;28;20056;-65
2022/07/17 13:22:57;;;;;;;3.47;1.58;;;23.40;99.90;;;;;;8352465;28;20753;-65
2022/07/17 13:26:59;;;;;;;3.75;1.35;;;23.50;99.90;;;;;;8352903;28;20076;-65
2022/07/17 13:31:02;;;;;;;2.78;1.20;;;23.50;99.90;;;;;;8350565;28;20045;-65
2022/07/17 13:35:06;;;;;;;4.43;1.75;;;23.60;99.90;;;;;;8334139;28;20519;-65
2022/07/17 13:39:07;;;;;;;4.28;1.40;;;23.70;99.90;;;;;;8350680;28;20041;-65
2022/07/17 13:43:09;;;;;;;3.15;1.38;;;23.70;99.90;;;;;;8334189;28;20049;-65
2022/07/17 13:47:11;;;;;;;3.65;1.40;;;23.70;99.90;;;;;;8349710;28;20041;-65
2022/07/17 13:51:13;;;;;;;;;;;23.70;99.90;;;;;;8350146;28;20311;-65
2022/07/17 13:55:15;;;;;;;;;;;23.70;99.90;;;;;;8353852;28;19928;-65
2022/07/17 13:59:37;;;;;;;;;;;23.80;99.90;;;;;;8352115;28;20011;-65
2022/07/17 14:03:38;;;;;;;;;;;23.80;99.90;;;;;;8373567;28;20024;-65
2022/07/17 14:07:40;;;;;;;;;;;23.90;99.90;;;;;;8357435;28;19928;-65
2022/07/17 14:11:42;;;;;;;;;;;23.90;99.90;;;;;;8346259;28;20276;-65
2022/07/17 14:15:43;;;;;;;;;;;24.00;99.90;;;;;;8349960;28;19928;-65
2022/07/17 14:19:46;;;;;;;;;;;24.00;99.90;;;;;;8357512;28;20400;-65
2022/07/17 14:23:47;;;;;;;;;;;24.00;99.90;;;;;;8352955;28;20394;-65
2022/07/17 14:27:49;;;;;;;;;;;24.10;99.90;;;;;;8343430;28;20280;-65
2022/07/17 14:31:51;;;;;;;;;;;24.20;99.90;;;;;;8348580;28;19932;-65
2022/07/17 14:35:52;;;;;;;;;;;24.30;99.90;;;;;;8357250;28;19943;-65
2022/07/17 14:39:54;;;;;;;;;;;24.50;99.90;;;;;;8349844;28;20402;-65
2022/07/17 14:43:57;;;;;;;;;;;24.60;99.90;;;;;;8349535;28;20189;-65
2022/07/17 14:47:59;;;;;;;;;;;24.70;99.90;;;;;;8350802;28;20387;-65
2022/07/17 14:52:00;;;;;;;;;;;24.70;99.90;;;;;;8351449;28;20020;-65
2022/07/17 14:56:02;;;;;;;;;;;24.80;99.90;;;;;;8354160;28;20375;-65
2022/07/17 15:00:04;;;;;;;;;;;25.00;99.90;;;;;;8355564;28;19929;-65
2022/07/17 15:04:06;;;;;;;;;;;25.10;99.90;;;;;;8348704;28;24430;-65
2022/07/17 15:08:07;;;;;;;;;;;25.20;99.90;;;;;;8346412;28;20308;-65
2022/07/17 15:12:09;;;;;;;;;;;25.20;99.90;;;;;;8362964;28;20288;-65
2022/07/17 15:16:11;;;;;;;;;;;25.20;99.90;;;;;;8348906;28;19971;-65
2022/07/17 15:20:12;;;;;;;;;;;25.20;99.90;;;;;;8352787;28;19928;-65
2022/07/17 15:24:14;;;;;;;;;;;25.10;99.90;;;;;;8354292;28;19981;-65
2022/07/17 15:28:16;;;;;;;;;;;25.20;99.90;;;;;;8352544;28;19939;-65
2022/07/17 15:32:18;;;;;;;;;;;25.20;99.90;;;;;;8352553;28;19921;-65
2022/07/17 15:36:25;;;;;;;;;;;25.20;99.90;;;;;;8344023;28;19921;-66
2022/07/17 15:40:27;;;;;;;;;;;25.20;99.90;;;;;;8351712;28;19928;-65
2022/07/17 15:44:29;;;;;;;;;;;25.20;99.90;;;;;;8335573;28;20478;-65
2022/07/17 15:48:33;;;;;;;;;;;25.20;99.90;;;;;;8350433;28;19986;-65
2022/07/17 15:52:35;;;;;;;;;;;25.10;99.90;;;;;;8348063;28;19928;-65
2022/07/17 15:56:36;;;;;;;;;;;25.10;99.90;;;;;;8365740;28;19939;-65
2022/07/17 16:00:38;;;;;;;;;;;25.20;99.90;;;;;;8352891;28;19928;-65
2022/07/17 16:04:40;;;;;;;;;;;25.50;99.90;;;;;;8350485;28;19921;-65
2022/07/17 16:08:41;;;;;;;;;;;25.90;99.90;;;;;;8355205;28;19936;-65
2022/07/17 16:12:43;;;;;;;;;;;26.30;99.90;;;;;;8346241;28;20431;-65
2022/07/17 16:16:44;;;;;;;;;;;26.40;99.90;;;;;;8350150;28;19921;-65
2022/07/17 16:20:46;;;;;;;;;;;26.70;99.90;;;;;;8346160;28;21228;-65
2022/07/17 16:24:48;;;;;;;;;;;27.00;99.90;;;;;;8350244;28;19995;-65
2022/07/17 16:28:49;;;;;;;;;;;27.20;99.90;;;;;;8344770;28;20257;-65
2022/07/17 16:32:51;;;;;;;;;;;27.20;99.90;;;;;;8364784;28;19930;-65
2022/07/17 16:36:54;;;;;;;;;;;27.30;99.90;;;;;;8351109;28;19933;-65
2022/07/17 16:40:56;;;;;;;;;;;27.50;99.90;;;;;;8355453;28;20229;-65
2022/07/17 16:44:57;;;;;;;;;;;27.50;99.90;;;;;;8346977;28;19927;-65
2022/07/17 16:48:59;;;;;;;;;;;27.50;99.90;;;;;;8347386;28;20386;-65
2022/07/17 16:53:01;;;;;;;;;;;27.50;99.90;;;;;;8334827;28;20439;-65
2022/07/17 16:57:03;;;;;;;;;;;27.50;99.90;;;;;;8336574;28;19963;-65
2022/07/17 17:01:05;;;;;;;;;;;27.40;99.90;;;;;;8345735;28;20218;-65
2022/07/17 17:05:09;;;;;;;;;;;27.40;99.90;;;;;;8354692;28;20018;-65
2022/07/17 17:09:10;;;;;;;;;;;27.40;99.90;;;;;;8342135;28;19928;-65
2022/07/17 17:13:12;;;;;;;;;;;27.50;99.90;;;;;;8348251;28;19932;-65
2022/07/17 17:17:14;;;;;;;;;;;27.60;99.90;;;;;;8340781;28;19947;-65
2022/07/17 17:21:21;;;;;;;;;;;27.70;99.90;;;;;;8342413;28;19951;-65
2022/07/17 17:25:23;;;;;;;;;;;27.80;99.90;;;;;;8343123;28;19928;-66
2022/07/17 17:29:24;;;;;;;;;;;27.60;99.90;;;;;;8344162;28;20276;-65
2022/07/17 17:33:26;;;;;;;;;;;27.50;99.90;;;;;;8341522;28;20386;-65
2022/07/17 17:37:28;;;;;;;;;;;27.30;99.90;;;;;;8355193;28;19924;-65
2022/07/17 17:41:29;;;;;;;;;;;27.20;99.90;;;;;;8338233;28;19928;-65
2022/07/17 17:45:31;;;;;;;;;;;27.00;99.90;;;;;;8353413;28;19925;-65
2022/07/17 17:49:33;;;;;;;;;;;26.80;99.90;;;;;;8342846;28;19975;-65
2022/07/17 17:53:35;;;;;;;;;;;26.70;99.90;;;;;;8349533;28;19931;-65
2022/07/17 17:57:41;;;;;;;;;;;26.60;99.90;;;;;;8355009;28;19925;-65
2022/07/17 18:01:44;;;;;;;;;;;26.50;99.90;;;;;;8351137;28;20577;-65
2022/07/17 18:05:46;;;;;;;;;;;26.40;99.90;;;;;;8342103;28;20342;-65
2022/07/17 18:09:47;;;;;;;;;;;26.30;99.90;;;;;;8353431;28;20271;-65
2022/07/17 18:13:49;;;;;;;;;;;26.30;99.90;;;;;;8368672;28;19925;-65
2022/07/17 18:17:51;;;;;;;;;;;26.20;99.90;;;;;;8356757;28;19921;-65
2022/07/17 18:21:52;;;;;;;;;;;26.10;99.90;;;;;;8356121;28;19928;-65
2022/07/17 18:25:55;;;;;;;;;;;26.00;99.90;;;;;;8357779;28;19935;-65
2022/07/17 18:29:57;;;;;;;;;;;26.00;99.90;;;;;;8356559;28;19921;-65
2022/07/17 18:33:59;;;;;;;;;;;25.90;99.90;;;;;;8355969;28;19928;-65
2022/07/17 18:38:00;;;;;;;;;;;25.80;99.90;;;;;;8363193;28;19934;-65
2022/07/17 18:42:03;;;;;;;;;;;25.70;99.90;;;;;;8357286;28;19924;-65
2022/07/17 18:46:05;;;;;;;;;;;25.70;99.90;;;;;;8357939;28;19921;-65
2022/07/17 18:50:07;;;;;;;;;;;25.60;99.90;;;;;;8340044;28;20380;-65
2022/07/17 18:54:08;;;;;;;;;;;25.60;99.90;;;;;;8355091;28;19965;-65
2022/07/17 18:58:11;;;;;;;;;;;25.40;99.90;;;;;;8354226;28;19935;-65
2022/07/17 19:02:12;;;;;;;;;;;25.30;99.90;;;;;;8338800;28;19921;-65
2022/07/17 19:06:14;;;;;;;;;;;25.20;99.90;;;;;;8337720;28;19928;-65
2022/07/17 19:10:17;;;;;;;;;;;25.00;99.90;;;;;;8349053;28;19920;-66
2022/07/17 19:14:19;;;;;;;;;;;24.90;99.90;;;;;;8347669;28;19928;-65
2022/07/17 19:18:21;;;;;;;;;;;24.80;99.90;;;;;;8348140;28;20368;-65
2022/07/17 19:22:25;;;;;;;;;;;24.70;99.90;;;;;;8346831;28;19929;-65
2022/07/17 19:26:27;;;;;;;;;;;24.50;99.90;;;;;;8342442;28;19924;-65
2022/07/17 19:30:30;;;;;;;;;;;24.40;99.90;;;;;;8350256;28;19947;-65
2022/07/17 19:34:31;;;;;;;;;;;24.20;99.90;;;;;;8350750;28;19928;-65
2022/07/17 19:38:33;;;;;;;;;;;24.10;99.90;;;;;;8348020;28;19924;-65
2022/07/17 19:42:35;;;;;;;;;;;24.00;99.90;;;;;;8342020;28;19929;-66
2022/07/17 19:46:37;;;;;;;;;;;23.80;99.90;;;;;;8350925;28;19921;-65
2022/07/17 19:50:39;;;;;;;;;;;23.70;99.90;;;;;;8354949;28;19933;-65
2022/07/17 19:54:40;;;;;;;;;;;23.60;99.90;;;;;;8354699;28;19929;-65
2022/07/17 19:58:47;;;;;;;;;;;23.50;99.90;;;;;;8348319;28;20318;-65
2022/07/17 20:02:48;;;;;;;;;;;23.30;99.90;;;;;;8350007;28;19928;-65
2022/07/17 20:06:50;;;;;;;;;;;23.20;99.90;;;;;;8351419;28;19962;-65
2022/07/17 20:10:52;;;;;;;;;;;23.10;99.90;;;;;;8345646;28;19928;-65
2022/07/17 20:14:53;;;;;;;;;;;23.00;99.90;;;;;;8348675;28;21724;-65
2022/07/17 20:18:55;;;;;;;4.57;2.22;;;22.90;99.90;;;;;;8350238;28;20252;-65
2022/07/17 20:22:58;;;;;;;5.35;2.13;;;22.80;99.90;;;;;;8345577;28;20065;-65
2022/07/17 20:27:00;;;;;;;4.03;2.10;;;22.70;99.90;;;;;;8349302;28;20063;-65
2022/07/17 20:31:02;;;;;;;5.88;2.13;;;22.60;99.90;;;;;;8349923;28;20048;-65
2022/07/17 20:35:04;;;;;;;4.47;2.03;;;22.50;99.90;;;;;;8356810;28;20056;-65
2022/07/17 20:39:06;;;;;;;4.82;2.40;;;22.40;99.90;;;;;;8350496;28;20064;-65
2022/07/17 20:43:09;;;;;;;4.35;2.05;;;22.30;99.90;;;;;;8327456;28;20049;-65
2022/07/17 20:47:10;;;;;;;5.07;2.15;;;22.20;99.90;;;;;;8351830;28;20331;-65
2022/07/17 20:51:12;;;;;;;4.35;2.15;;;22.20;99.90;;;;;;8340687;28;20053;-65
2022/07/17 20:55:14;;;;;;;4.35;2.25;;;22.10;99.90;;;;;;8329301;28;20055;-65
2022/07/17 20:59:16;;;;;;;4.53;2.35;;;22.00;99.90;;;;;;8341384;28;20049;-65
2022/07/17 21:03:18;;;;;;;5.43;2.10;;;22.00;99.90;;;;;;8361088;28;20048;-65
2022/07/17 21:07:19;;;;;;;5.70;2.45;;;21.90;99.90;;;;;;8358913;28;20048;-65
2022/07/17 21:11:21;;;;;;;5.55;2.28;;;21.80;99.90;;;;;;8370979;28;20041;-65
2022/07/17 21:15:23;;;;;;;4.32;2.03;;;21.70;99.90;;;;;;8397240;28;20051;-65
2022/07/17 21:19:25;;;;;;;5.82;1.90;;;21.60;99.90;;;;;;8375088;28;20048;-65
2022/07/17 21:23:27;;;;;;;5.65;2.55;;;21.60;99.90;;;;;;8387834;28;20052;-65
2022/07/17 21:27:29;;;;;;;4.32;1.88;;;21.50;99.90;;;;;;8381083;28;20053;-65
2022/07/17 21:31:31;;;;;;;4.40;2.03;;;21.40;99.90;;;;;;8370144;28;20052;-65
2022/07/17 21:35:32;;;;;;;5.13;2.10;;;21.30;99.90;;;;;;8357756;28;20143;-65
2022/07/17 21:39:34;;;;;;;4.40;2.10;;;21.30;99.90;;;;;;8367248;28;20065;-65
2022/07/17 21:43:36;;;;;;;;;;;21.20;99.90;;;;;;8368669;28;20600;-65
2022/07/17 21:47:38;;;;;;;;;;;21.10;99.90;;;;;;8388068;28;20283;-65
2022/07/17 21:51:39;;;;;;;;;;;21.10;99.90;;;;;;8388412;28;20268;-65
2022/07/17 21:55:41;;;;;;;;;;;21.00;99.90;;;;;;8387647;28;20265;-65
2022/07/17 21:59:43;;;;;;;;;;;20.90;99.90;;;;;;8366899;28;19920;-65
2022/07/17 22:03:45;;;;;;;;;;;20.80;99.90;;;;;;8388803;28;19928;-65
2022/07/17 22:07:46;;;;;;;;;;;20.70;99.90;;;;;;8369074;28;19931;-65
2022/07/17 22:11:48;;;;;;;;;;;20.70;99.90;;;;;;8371183;28;19920;-65
2022/07/17 22:15:50;;;;;;;;;;;20.60;99.90;;;;;;8374649;28;20014;-65
2022/07/17 22:19:52;;;;;;;;;;;20.50;99.90;;;;;;8377362;28;19927;-65
2022/07/17 22:23:54;;;;;;;;;;;20.50;99.90;;;;;;8375301;28;20463;-65
2022/07/17 22:27:55;;;;;;;;;;;20.40;99.90;;;;;;8376776;28;19921;-66
2022/07/17 22:31:57;;;;;;;;;;;20.30;99.90;;;;;;8377107;28;20375;-65
2022/07/17 22:35:59;;;;;;;;;;;20.30;99.90;;;;;;8360545;28;19955;-65
2022/07/17 22:40:01;;;;;;;;;;;20.20;99.90;;;;;;8373409;28;19924;-65
2022/07/17 22:44:03;;;;;;;;;;;20.10;99.90;;;;;;8368681;28;19937;-65
2022/07/17 22:48:04;;;;;;;;;;;20.00;99.90;;;;;;8385536;28;19925;-65
2022/07/17 22:52:06;;;;;;;;;;;20.00;99.90;;;;;;8375502;28;19928;-65
2022/07/17 22:56:08;;;;;;;;;;;19.90;99.90;;;;;;8375804;28;20287;-65
2022/07/17 23:00:10;;;;;;;;;;;19.80;99.90;;;;;;8377217;28;19920;-65
2022/07/17 23:04:12;;;;;;;;;;;19.70;99.90;;;;;;8376157;28;19924;-65
2022/07/17 23:08:14;;;;;;;;;;;19.70;99.90;;;;;;8383697;28;20386;-65
2022/07/17 23:12:15;;;;;;;;;;;19.60;99.90;;;;;;8375180;28;20355;-65
2022/07/17 23:16:18;;;;;;;;;;;19.50;99.90;;;;;;8371806;28;20372;-65
2022/07/17 23:20:19;;;;;;;;;;;19.40;99.90;;;;;;8354473;28;19955;-65